createdAt,value
2022-10-28T00:02:12.320Z,41.28
2022-10-28T00:05:13.989Z,41.35
2022-10-28T00:08:15.396Z,38.92
2022-10-28T00:11:20.100Z,44.63
2022-10-28T00:14:21.541Z,46.38
2022-10-28T00:20:25.350Z,40.78
2022-10-28T00:23:26.752Z,42.75
2022-10-28T00:26:30.779Z,35.67
2022-10-28T00:29:32.193Z,40.13
2022-10-28T00:32:33.604Z,46.28
2022-10-28T00:35:35.000Z,43.92
2022-10-28T00:38:36.516Z,45.88
2022-10-28T00:41:40.474Z,39.33
2022-10-28T00:44:52.273Z,38.05
2022-10-28T00:48:00.636Z,41.95
2022-10-28T00:51:02.800Z,46.38
2022-10-28T00:54:06.167Z,43.88
2022-10-28T00:57:13.240Z,54.00
2022-10-28T01:00:14.999Z,43.35
2022-10-28T01:03:16.734Z,52.38
2022-10-28T01:06:18.162Z,48.65
2022-10-28T01:09:19.590Z,49.38
2022-10-28T01:12:40.985Z,56.15
2022-10-28T01:16:12.377Z,52.28
2022-10-28T01:19:51.762Z,49.35
2022-10-28T01:23:04.933Z,55.47
2022-10-28T01:26:37.269Z,59.95
2022-10-28T01:29:52.311Z,57.67
2022-10-28T01:33:01.176Z,61.33
2022-10-28T01:36:21.285Z,60.92
2022-10-28T01:39:32.148Z,64.97
2022-10-28T01:42:42.156Z,69.72
2022-10-28T01:45:55.928Z,65.63
2022-10-28T01:49:02.740Z,59.92
2022-10-28T01:52:09.451Z,63.80
2022-10-28T01:55:18.435Z,61.63
2022-10-28T01:58:23.401Z,51.30
2022-10-28T02:01:27.330Z,68.18
2022-10-28T02:04:29.101Z,59.42
2022-10-28T02:07:30.564Z,57.25
2022-10-28T02:10:37.360Z,55.92
2022-10-28T02:14:02.491Z,62.05
2022-10-28T02:17:45.358Z,66.13
2022-10-28T02:20:53.561Z,58.92
2022-10-28T02:24:24.318Z,72.22
2022-10-28T02:27:58.872Z,67.70
2022-10-28T02:31:26.991Z,69.65
2022-10-28T02:34:40.467Z,69.57
2022-10-28T02:37:45.405Z,71.60
2022-10-28T02:44:06.943Z,70.55
2022-10-28T02:47:15.145Z,60.97
2022-10-28T02:50:19.982Z,67.85
2022-10-28T02:53:37.009Z,69.80
2022-10-28T02:56:44.296Z,60.30
2022-10-28T02:59:57.773Z,65.88
2022-10-28T03:02:59.510Z,59.33
2022-10-28T03:06:00.938Z,55.47
2022-10-28T03:09:02.405Z,54.92
2022-10-28T03:12:04.155Z,55.75
2022-10-28T03:15:06.230Z,56.17
2022-10-28T03:18:08.289Z,58.40
2022-10-28T03:21:09.676Z,63.97
2022-10-28T03:24:11.118Z,63.58
2022-10-28T03:27:12.535Z,55.33
2022-10-28T03:30:14.038Z,54.03
2022-10-28T03:33:15.476Z,52.40
2022-10-28T03:36:16.879Z,52.88
2022-10-28T03:39:18.309Z,57.38
2022-10-28T03:42:19.712Z,52.85
2022-10-28T03:45:21.171Z,52.58
2022-10-28T03:48:22.617Z,53.45
2022-10-28T03:51:24.054Z,54.20
2022-10-28T03:54:25.497Z,51.50
2022-10-28T03:57:30.753Z,53.15
2022-10-28T04:00:32.183Z,54.00
2022-10-28T04:03:33.672Z,54.00
2022-10-28T04:06:35.070Z,52.00
2022-10-28T04:09:36.503Z,51.90
2022-10-28T04:12:37.964Z,49.58
2022-10-28T04:15:39.390Z,63.40
2022-10-28T04:18:40.777Z,53.35
2022-10-28T04:21:42.597Z,53.53
2022-10-28T04:24:44.045Z,51.25
2022-10-28T04:27:45.470Z,51.00
2022-10-28T04:30:47.713Z,49.47
2022-10-28T04:33:49.176Z,51.50
2022-10-28T04:36:50.961Z,56.47
2022-10-28T04:39:52.351Z,50.50
2022-10-28T04:42:54.147Z,50.25
2022-10-28T04:45:55.808Z,48.45
2022-10-28T04:48:57.217Z,47.05
2022-10-28T04:51:58.624Z,51.53
2022-10-28T04:55:00.074Z,47.10
2022-10-28T04:58:01.548Z,42.17
2022-10-28T05:01:10.132Z,44.60
2022-10-28T05:04:11.648Z,46.67
2022-10-28T05:07:13.042Z,46.20
2022-10-28T05:10:14.794Z,45.45
2022-10-28T05:13:17.260Z,45.92
2022-10-28T05:16:19.043Z,41.45
2022-10-28T05:19:20.446Z,41.70
2022-10-28T05:22:21.880Z,41.10
2022-10-28T05:25:23.467Z,42.33
2022-10-28T05:28:24.927Z,38.53
2022-10-28T05:31:26.335Z,47.03
2022-10-28T05:34:27.735Z,37.63
2022-10-28T05:37:29.224Z,41.67
2022-10-28T05:40:30.720Z,39.35
2022-10-28T05:43:32.131Z,40.33
2022-10-28T05:46:33.602Z,42.40
2022-10-28T05:49:35.028Z,37.47
2022-10-28T05:52:36.458Z,42.08
2022-10-28T05:55:37.960Z,48.50
2022-10-28T05:58:39.413Z,43.97
2022-10-28T06:01:40.957Z,40.85
2022-10-28T06:04:42.638Z,42.45
2022-10-28T06:07:44.092Z,40.35
2022-10-28T06:10:54.702Z,41.92
2022-10-28T06:13:56.144Z,34.17
2022-10-28T06:16:57.730Z,40.35
2022-10-28T06:19:59.172Z,40.95
2022-10-28T06:23:00.584Z,38.38
2022-10-28T06:26:03.355Z,35.65
2022-10-28T06:29:04.786Z,38.00
2022-10-28T06:32:09.362Z,39.40
2022-10-28T06:35:10.880Z,40.35
2022-10-28T06:38:12.307Z,40.03
2022-10-28T06:41:13.768Z,34.03
2022-10-28T06:44:15.186Z,37.78
2022-10-28T06:47:18.134Z,37.65
2022-10-28T06:50:19.560Z,34.00
2022-10-28T06:53:21.008Z,34.08
2022-10-28T06:56:22.848Z,33.88
2022-10-28T06:59:24.282Z,33.08
2022-10-28T07:02:25.799Z,32.10
2022-10-28T07:05:27.953Z,37.85
2022-10-28T07:08:29.468Z,38.97
2022-10-28T07:11:30.857Z,32.10
2022-10-28T07:14:32.382Z,32.85
2022-10-28T07:17:33.807Z,36.85
2022-10-28T07:20:35.229Z,24.92
2022-10-28T07:23:36.651Z,26.10
2022-10-28T07:26:38.071Z,23.67
2022-10-28T07:29:39.819Z,24.13
2022-10-28T07:32:41.292Z,22.52
2022-10-28T07:35:43.005Z,23.67
2022-10-28T07:38:44.422Z,23.60
2022-10-28T07:41:46.673Z,23.90
2022-10-28T07:44:48.112Z,24.77
2022-10-28T07:47:49.661Z,20.30
2022-10-28T07:50:51.103Z,24.35
2022-10-28T07:53:52.533Z,25.00
2022-10-28T07:56:53.962Z,18.65
2022-10-28T07:59:55.385Z,24.20
2022-10-28T08:02:56.874Z,21.25
2022-10-28T08:06:20.724Z,23.98
2022-10-28T08:09:22.219Z,20.83
2022-10-28T08:12:23.671Z,21.75
2022-10-28T08:15:25.111Z,22.05
2022-10-28T08:18:26.507Z,21.65
2022-10-28T08:21:27.882Z,16.20
2022-10-28T08:24:29.295Z,23.80
2022-10-28T08:27:30.712Z,17.38
2022-10-28T08:30:40.367Z,22.27
2022-10-28T08:33:51.912Z,17.35
2022-10-28T08:36:53.387Z,20.63
2022-10-28T08:39:54.875Z,22.23
2022-10-28T08:43:05.273Z,22.75
2022-10-28T08:46:29.672Z,18.50
2022-10-28T08:49:34.980Z,20.13
2022-10-28T08:52:39.441Z,16.02
2022-10-28T08:55:45.323Z,19.55
2022-10-28T08:58:49.403Z,18.38
2022-10-28T09:05:04.354Z,22.27
2022-10-28T09:08:06.845Z,16.63
2022-10-28T09:11:27.483Z,18.15
2022-10-28T09:14:52.896Z,20.65
2022-10-28T09:17:57.445Z,14.27
2022-10-28T09:21:04.897Z,15.95
2022-10-28T09:24:18.656Z,23.77
2022-10-28T09:27:33.673Z,15.35
2022-10-28T09:30:41.929Z,14.88
2022-10-28T09:34:01.623Z,19.20
2022-10-28T09:37:12.412Z,16.25
2022-10-28T09:40:22.028Z,23.05
2022-10-28T09:44:03.581Z,18.80
2022-10-28T09:47:17.174Z,19.05
2022-10-28T09:50:22.388Z,20.42
2022-10-28T09:53:42.617Z,14.73
2022-10-28T09:56:44.064Z,19.52
2022-10-28T09:59:46.048Z,20.40
2022-10-28T10:02:47.622Z,20.55
2022-10-28T10:05:54.014Z,18.27
2022-10-28T10:08:57.036Z,18.35
2022-10-28T10:12:12.292Z,19.77
2022-10-28T10:15:19.183Z,18.55
2022-10-28T10:18:28.152Z,20.02
2022-10-28T10:21:48.310Z,14.27
2022-10-28T10:24:49.691Z,19.10
2022-10-28T10:27:57.239Z,19.02
2022-10-28T10:31:03.072Z,21.45
2022-10-28T10:34:04.534Z,16.05
2022-10-28T10:37:18.480Z,18.73
2022-10-28T10:40:24.927Z,20.30
2022-10-28T10:43:33.544Z,17.65
2022-10-28T10:46:34.977Z,20.98
2022-10-28T10:49:36.391Z,18.77
2022-10-28T10:52:38.128Z,19.67
2022-10-28T10:55:40.775Z,14.75
2022-10-28T10:58:51.460Z,14.80
2022-10-28T11:01:55.035Z,19.52
2022-10-28T11:05:01.909Z,16.17
2022-10-28T11:08:03.423Z,20.92
2022-10-28T11:11:11.814Z,14.18
2022-10-28T11:14:13.170Z,16.90
2022-10-28T11:17:25.050Z,20.42
2022-10-28T11:20:32.834Z,18.50
2022-10-28T11:24:10.408Z,18.02
2022-10-28T11:27:25.939Z,15.35
2022-10-28T11:30:42.323Z,15.65
2022-10-28T11:34:07.251Z,16.38
2022-10-28T11:37:21.683Z,16.55
2022-10-28T11:40:37.906Z,17.10
2022-10-28T11:43:55.383Z,21.45
2022-10-28T11:47:05.330Z,18.88
2022-10-28T11:50:31.632Z,17.13
2022-10-28T11:53:38.772Z,17.85
2022-10-28T11:56:47.480Z,17.40
2022-10-28T12:00:15.129Z,14.93
2022-10-28T12:03:43.053Z,19.60
2022-10-28T12:06:50.123Z,16.70
2022-10-28T12:10:39.220Z,19.20
2022-10-28T12:13:43.766Z,18.75
2022-10-28T12:16:56.405Z,13.45
2022-10-28T12:20:22.084Z,14.32
2022-10-28T12:23:25.426Z,16.13
2022-10-28T12:26:38.318Z,19.40
2022-10-28T12:29:45.679Z,22.92
2022-10-28T12:32:53.002Z,16.63
2022-10-28T12:36:03.268Z,14.90
2022-10-28T12:39:15.307Z,21.73
2022-10-28T12:42:41.903Z,15.88
2022-10-28T12:45:44.088Z,14.88
2022-10-28T12:48:53.177Z,16.65
2022-10-28T12:51:57.966Z,18.20
2022-10-28T12:55:18.176Z,14.98
2022-10-28T12:58:26.970Z,18.55
2022-10-28T13:01:31.182Z,13.68
2022-10-28T13:04:32.871Z,18.00
2022-10-28T13:08:00.750Z,25.98
2022-10-28T13:11:20.968Z,17.73
2022-10-28T13:14:38.573Z,21.55
2022-10-28T13:17:53.910Z,20.65
2022-10-28T13:21:19.428Z,19.65
2022-10-28T13:24:38.679Z,15.20
2022-10-28T13:27:40.494Z,21.00
2022-10-28T13:30:56.589Z,21.63
2022-10-28T13:33:59.861Z,16.13
2022-10-28T13:37:03.633Z,19.02
2022-10-28T13:43:18.374Z,17.58
2022-10-28T13:46:57.731Z,18.38
2022-10-28T13:50:08.657Z,18.15
2022-10-28T13:53:28.939Z,15.07
2022-10-28T13:56:37.951Z,20.67
2022-10-28T14:00:01.128Z,13.68
2022-10-28T14:03:16.363Z,18.85
2022-10-28T14:06:31.719Z,13.13
2022-10-28T14:09:35.799Z,18.23
2022-10-28T14:12:42.602Z,16.90
2022-10-28T14:15:44.920Z,16.70
2022-10-28T14:19:06.318Z,15.43
2022-10-28T14:22:08.433Z,14.32
2022-10-28T14:25:40.758Z,15.98
2022-10-28T14:28:42.117Z,16.63
2022-10-28T14:31:45.167Z,15.07
2022-10-28T14:34:47.711Z,15.98
2022-10-28T14:38:00.894Z,15.32
2022-10-28T14:41:25.408Z,15.87
2022-10-28T14:44:55.337Z,15.88
2022-10-28T14:48:21.380Z,15.70
2022-10-28T14:51:43.472Z,13.63
2022-10-28T14:54:51.807Z,14.40
2022-10-28T14:57:53.638Z,15.43
2022-10-28T15:01:11.920Z,12.73
2022-10-28T15:04:20.695Z,11.07
2022-10-28T15:07:22.375Z,14.40
2022-10-28T15:10:32.263Z,12.15
2022-10-28T15:13:33.835Z,15.75
2022-10-28T15:16:35.275Z,14.20
2022-10-28T15:19:36.671Z,21.25
2022-10-28T15:22:38.082Z,14.85
2022-10-28T15:25:39.566Z,15.02
2022-10-28T15:28:42.261Z,15.60
2022-10-28T15:32:03.227Z,14.90
2022-10-28T15:35:26.516Z,10.60
2022-10-28T15:38:27.863Z,15.88
2022-10-28T15:41:29.247Z,16.55
2022-10-28T15:44:38.324Z,19.67
2022-10-28T15:47:39.742Z,18.58
2022-10-28T15:50:41.557Z,12.57
2022-10-28T15:53:44.662Z,15.20
2022-10-28T15:56:57.935Z,13.27
2022-10-28T16:00:21.309Z,17.48
2022-10-28T16:03:45.006Z,20.13
2022-10-28T16:06:46.643Z,19.45
2022-10-28T16:09:49.262Z,16.88
2022-10-28T16:12:50.900Z,19.92
2022-10-28T16:15:59.419Z,20.23
2022-10-28T16:19:05.948Z,17.65
2022-10-28T16:22:12.442Z,20.13
2022-10-28T16:25:16.315Z,19.10
2022-10-28T16:31:26.958Z,15.25
2022-10-28T16:34:28.364Z,20.50
2022-10-28T16:37:32.694Z,25.48
2022-10-28T16:43:55.637Z,11.57
2022-10-28T16:46:57.136Z,15.82
2022-10-28T16:49:58.542Z,17.65
2022-10-28T16:52:59.944Z,17.83
2022-10-28T16:56:01.348Z,18.55
2022-10-28T16:59:02.862Z,21.00
2022-10-28T17:02:06.532Z,24.42
2022-10-28T17:05:22.872Z,18.35
2022-10-28T17:08:49.008Z,21.25
2022-10-28T17:11:45.838Z,22.55
2022-10-28T17:14:47.618Z,20.65
2022-10-28T17:17:51.090Z,20.75
2022-10-28T17:20:59.801Z,14.95
2022-10-28T17:24:01.246Z,30.63
2022-10-28T17:27:02.716Z,13.98
2022-10-28T17:30:04.937Z,22.77
2022-10-28T17:33:06.448Z,20.75
2022-10-28T17:36:08.391Z,18.52
2022-10-28T17:39:15.361Z,19.50
2022-10-28T17:42:18.535Z,15.30
2022-10-28T17:45:22.056Z,21.00
2022-10-28T17:48:23.700Z,24.75
2022-10-28T17:51:25.123Z,18.42
2022-10-28T17:54:27.778Z,11.73
2022-10-28T17:57:29.212Z,18.73
2022-10-28T18:00:30.612Z,15.50
2022-10-28T18:03:35.556Z,15.93
2022-10-28T18:06:39.618Z,15.80
2022-10-28T18:09:41.016Z,16.42
2022-10-28T18:12:42.422Z,14.50
2022-10-28T18:15:43.839Z,17.98
2022-10-28T18:18:45.664Z,15.77
2022-10-28T18:21:47.215Z,18.40
2022-10-28T18:24:48.610Z,15.07
2022-10-28T18:27:50.001Z,18.38
2022-10-28T18:30:51.405Z,26.80
2022-10-28T18:33:52.902Z,19.73
2022-10-28T18:36:54.297Z,19.75
2022-10-28T18:39:55.739Z,25.20
2022-10-28T18:42:57.116Z,21.27
2022-10-28T18:46:01.534Z,23.98
2022-10-28T18:49:03.254Z,23.08
2022-10-28T18:52:04.795Z,26.83
2022-10-28T18:55:06.543Z,15.77
2022-10-28T18:58:07.952Z,20.75
2022-10-28T19:01:12.221Z,24.25
2022-10-28T19:04:13.855Z,22.50
2022-10-28T19:07:15.248Z,22.80
2022-10-28T19:10:16.720Z,20.77
2022-10-28T19:13:18.113Z,21.65
2022-10-28T19:16:19.519Z,26.65
2022-10-28T19:19:20.936Z,27.10
2022-10-28T19:22:22.384Z,23.50
2022-10-28T19:25:23.974Z,30.27
2022-10-28T19:28:25.449Z,31.58
2022-10-28T19:31:27.744Z,23.92
2022-10-28T19:34:29.144Z,27.60
2022-10-28T19:37:30.553Z,28.90
2022-10-28T19:40:32.009Z,27.95
2022-10-28T19:43:34.366Z,28.00
2022-10-28T19:46:35.972Z,40.90
2022-10-28T19:49:40.654Z,32.30
2022-10-28T19:52:44.922Z,27.63
2022-10-28T19:55:46.327Z,31.08
2022-10-28T19:58:50.747Z,24.98
2022-10-28T20:01:52.172Z,30.05
2022-10-28T20:04:53.646Z,30.73
2022-10-28T20:07:55.461Z,23.80
2022-10-28T20:10:59.782Z,39.70
2022-10-28T20:14:04.162Z,31.70
2022-10-28T20:17:06.833Z,31.98
2022-10-28T20:20:08.845Z,30.45
2022-10-28T20:23:10.889Z,27.83
2022-10-28T20:26:13.270Z,26.00
2022-10-28T20:29:14.684Z,29.20
2022-10-28T20:32:17.023Z,40.72
2022-10-28T20:35:18.574Z,25.63
2022-10-28T20:38:20.822Z,34.83
2022-10-28T20:41:23.612Z,30.38
2022-10-28T20:44:25.027Z,27.17
2022-10-28T20:47:26.436Z,31.85
2022-10-28T20:50:27.811Z,42.80
2022-10-28T20:53:34.416Z,39.78
2022-10-28T20:56:37.573Z,31.90
2022-10-28T20:59:38.972Z,34.50
2022-10-28T21:02:40.584Z,37.65
2022-10-28T21:05:43.433Z,37.28
2022-10-28T21:08:44.887Z,42.95
2022-10-28T21:11:46.327Z,32.58
2022-10-28T21:14:47.723Z,31.25
2022-10-28T21:17:49.119Z,36.30
2022-10-28T21:20:55.507Z,34.97
2022-10-28T21:23:57.061Z,34.75
2022-10-28T21:26:58.451Z,31.73
2022-10-28T21:30:00.018Z,32.75
2022-10-28T21:33:02.319Z,37.35
2022-10-28T21:36:06.975Z,40.85
2022-10-28T21:39:08.496Z,34.85
2022-10-28T21:42:10.011Z,39.45
2022-10-28T21:45:11.397Z,33.40
2022-10-28T21:48:12.792Z,38.05
2022-10-28T21:51:15.725Z,35.10
2022-10-28T21:54:18.719Z,43.00
2022-10-28T21:57:20.320Z,41.35
2022-10-28T22:00:21.875Z,33.95
2022-10-28T22:03:23.296Z,40.40
2022-10-28T22:06:24.931Z,44.85
2022-10-28T22:09:26.381Z,39.40
2022-10-28T22:12:29.676Z,43.70
2022-10-28T22:15:31.098Z,48.90
2022-10-28T22:18:34.331Z,47.70
2022-10-28T22:21:37.245Z,53.40
2022-10-28T22:24:38.630Z,44.92
2022-10-28T22:27:40.022Z,46.45
2022-10-28T22:30:41.495Z,47.35
2022-10-28T22:33:43.311Z,55.83
2022-10-28T22:36:44.749Z,46.08
2022-10-28T22:39:46.169Z,42.10
2022-10-28T22:42:47.550Z,54.05
2022-10-28T22:45:48.971Z,55.17
2022-10-28T22:48:50.355Z,36.38
2022-10-28T22:51:51.755Z,35.47
2022-10-28T22:54:53.166Z,32.03
2022-10-28T22:57:55.101Z,42.50
2022-10-28T23:01:11.671Z,43.65
2022-10-28T23:04:13.201Z,41.58
2022-10-28T23:07:14.616Z,46.70
2022-10-28T23:10:16.110Z,43.47
2022-10-28T23:13:17.515Z,41.00
2022-10-28T23:16:19.619Z,54.88
2022-10-28T23:19:21.017Z,54.60
2022-10-28T23:22:22.429Z,40.97
2022-10-28T23:25:23.838Z,57.63
2022-10-28T23:28:25.284Z,50.90
2022-10-28T23:31:27.866Z,66.78
2022-10-28T23:34:29.270Z,66.82
2022-10-28T23:37:30.717Z,73.03
2022-10-28T23:40:32.154Z,65.75
2022-10-28T23:43:34.043Z,65.22
2022-10-28T23:46:37.540Z,69.05
2022-10-28T23:49:39.295Z,55.08
2022-10-28T23:52:41.145Z,55.80
2022-10-28T23:55:43.679Z,58.08
2022-10-28T23:58:45.094Z,72.18
